createdAt,value
2023-02-05T00:00:52.409Z,513.00
2023-02-05T00:01:52.447Z,513.00
2023-02-05T00:02:52.379Z,510.00
2023-02-05T00:03:52.382Z,512.00
2023-02-05T00:55:33.657Z,500.00
2023-02-05T00:56:34.267Z,500.00
2023-02-05T00:57:34.262Z,500.00
2023-02-05T00:58:34.269Z,500.00
2023-02-05T00:59:34.247Z,500.00
2023-02-05T01:00:34.241Z,500.00
2023-02-05T01:01:34.273Z,432.00
2023-02-05T01:02:34.232Z,402.00
2023-02-05T01:03:34.206Z,400.00
2023-02-05T01:04:34.200Z,400.00
2023-02-05T01:05:34.517Z,400.00
2023-02-05T01:06:34.191Z,418.00
2023-02-05T01:07:34.170Z,446.00
2023-02-05T01:08:34.162Z,491.00
2023-02-05T01:09:34.154Z,498.00
2023-02-05T01:10:34.148Z,500.00
2023-02-05T01:11:34.171Z,499.00
2023-02-05T01:12:34.141Z,500.00
2023-02-05T01:13:34.123Z,500.00
2023-02-05T01:14:34.115Z,501.00
2023-02-05T01:15:34.442Z,500.00
2023-02-05T01:16:34.097Z,504.00
2023-02-05T01:17:34.086Z,502.00
2023-02-05T01:18:34.079Z,502.00
2023-02-05T01:19:34.081Z,504.00
2023-02-05T01:20:34.065Z,500.00
2023-02-05T01:21:34.055Z,507.00
2023-02-05T01:22:34.043Z,504.00
2023-02-05T01:23:34.030Z,503.00
2023-02-05T01:24:34.028Z,504.00
2023-02-05T01:25:34.379Z,500.00
2023-02-05T01:26:34.017Z,506.00
2023-02-05T01:27:34.032Z,503.00
2023-02-05T01:28:33.993Z,501.00
2023-02-05T01:29:33.978Z,505.00
2023-02-05T01:30:34.004Z,501.00
2023-02-05T01:31:34.069Z,501.00
2023-02-05T01:32:33.958Z,502.00
2023-02-05T01:33:33.950Z,500.00
2023-02-05T01:34:33.938Z,506.00
2023-02-05T01:35:34.238Z,503.00
2023-02-05T01:36:33.924Z,511.00
2023-02-05T01:37:33.909Z,504.00
2023-02-05T01:38:33.913Z,509.00
2023-02-05T01:39:33.888Z,500.00
2023-02-05T01:40:33.882Z,505.00
2023-02-05T01:41:33.892Z,507.00
2023-02-05T01:42:33.867Z,507.00
2023-02-05T01:43:33.881Z,502.00
2023-02-05T01:44:33.845Z,500.00
2023-02-05T01:45:34.033Z,500.00
2023-02-05T01:46:33.847Z,510.00
2023-02-05T01:47:33.819Z,502.00
2023-02-05T01:48:33.808Z,500.00
2023-02-05T01:49:33.831Z,507.00
2023-02-05T01:50:33.794Z,507.00
2023-02-05T01:51:33.785Z,502.00
2023-02-05T01:52:33.779Z,504.00
2023-02-05T01:53:33.763Z,504.00
2023-02-05T01:54:33.770Z,508.00
2023-02-05T01:55:34.016Z,507.00
2023-02-05T01:56:33.736Z,506.00
2023-02-05T01:57:33.730Z,500.00
2023-02-05T01:58:33.741Z,502.00
2023-02-05T01:59:33.729Z,506.00
2023-02-05T02:00:33.715Z,511.00
2023-02-05T02:01:33.733Z,503.00
2023-02-05T02:02:33.690Z,504.00
2023-02-05T02:03:33.670Z,509.00
2023-02-05T02:04:33.664Z,507.00
2023-02-05T02:05:33.992Z,508.00
2023-02-05T02:06:33.650Z,506.00
2023-02-05T02:07:33.635Z,510.00
2023-02-05T02:08:33.629Z,508.00
2023-02-05T02:09:33.619Z,505.00
2023-02-05T02:10:33.613Z,508.00
2023-02-05T02:11:33.612Z,506.00
2023-02-05T02:12:33.602Z,507.00
2023-02-05T02:13:33.606Z,506.00
2023-02-05T02:14:33.575Z,502.00
2023-02-05T02:15:33.929Z,505.00
2023-02-05T02:16:33.560Z,506.00
2023-02-05T02:17:33.553Z,506.00
2023-02-05T02:18:33.541Z,506.00
2023-02-05T02:19:33.535Z,503.00
2023-02-05T02:20:33.525Z,505.00
2023-02-05T02:21:33.517Z,504.00
2023-02-05T02:22:33.509Z,502.00
2023-02-05T02:23:33.498Z,504.00
2023-02-05T02:24:33.490Z,505.00
2023-02-05T02:25:33.798Z,503.00
2023-02-05T02:26:33.808Z,505.00
2023-02-05T02:27:33.463Z,506.00
2023-02-05T02:28:33.462Z,507.00
2023-02-05T02:29:33.443Z,505.00
2023-02-05T02:30:33.466Z,504.00
2023-02-05T02:31:33.470Z,504.00
2023-02-05T02:32:33.416Z,509.00
2023-02-05T02:33:33.433Z,506.00
2023-02-05T02:34:33.404Z,506.00
2023-02-05T02:35:33.765Z,502.00
2023-02-05T02:36:33.382Z,507.00
2023-02-05T02:37:33.372Z,506.00
2023-02-05T02:38:33.366Z,502.00
2023-02-05T02:39:33.361Z,506.00
2023-02-05T02:40:33.348Z,504.00
2023-02-05T02:41:33.340Z,506.00
2023-02-05T02:42:33.329Z,507.00
2023-02-05T02:43:33.316Z,508.00
2023-02-05T02:44:33.329Z,505.00
2023-02-05T02:45:33.574Z,501.00
2023-02-05T02:46:33.332Z,510.00
2023-02-05T02:47:33.316Z,504.00
2023-02-05T02:48:33.281Z,503.00
2023-02-05T02:49:33.267Z,506.00
2023-02-05T02:50:33.265Z,506.00
2023-02-05T02:51:33.267Z,508.00
2023-02-05T02:52:33.249Z,506.00
2023-02-05T02:53:33.241Z,508.00
2023-02-05T02:54:33.232Z,505.00
2023-02-05T02:55:33.552Z,506.00
2023-02-05T02:56:33.207Z,507.00
2023-02-05T02:57:33.202Z,508.00
2023-02-05T02:58:33.200Z,506.00
2023-02-05T02:59:33.192Z,507.00
2023-02-05T03:00:33.245Z,508.00
2023-02-05T03:01:33.174Z,504.00
2023-02-05T03:02:33.160Z,507.00
2023-02-05T03:03:33.196Z,504.00
2023-02-05T03:04:33.145Z,504.00
2023-02-05T03:05:33.639Z,509.00
2023-02-05T03:06:33.126Z,508.00
2023-02-05T03:07:33.115Z,508.00
2023-02-05T03:08:33.105Z,508.00
2023-02-05T03:09:33.417Z,507.00
2023-02-05T03:10:33.151Z,506.00
2023-02-05T03:11:33.077Z,507.00
2023-02-05T03:12:33.077Z,508.00
2023-02-05T03:13:33.058Z,506.00
2023-02-05T03:14:33.048Z,507.00
2023-02-05T03:15:33.244Z,505.00
2023-02-05T03:16:33.148Z,507.00
2023-02-05T03:17:33.050Z,506.00
2023-02-05T03:18:33.018Z,502.00
2023-02-05T03:19:33.068Z,503.00
2023-02-05T03:20:32.998Z,505.00
2023-02-05T03:21:32.991Z,511.00
2023-02-05T03:22:32.991Z,511.00
2023-02-05T03:23:32.980Z,508.00
2023-02-05T03:24:32.962Z,506.00
2023-02-05T03:25:33.326Z,506.00
2023-02-05T03:26:32.953Z,510.00
2023-02-05T03:27:32.935Z,505.00
2023-02-05T03:28:32.929Z,507.00
2023-02-05T03:29:32.924Z,508.00
2023-02-05T03:30:32.950Z,510.00
2023-02-05T03:31:32.970Z,504.00
2023-02-05T03:32:32.895Z,505.00
2023-02-05T03:33:32.881Z,508.00
2023-02-05T03:34:32.877Z,503.00
2023-02-05T03:35:33.409Z,508.00
2023-02-05T03:36:32.867Z,507.00
2023-02-05T03:37:32.854Z,508.00
2023-02-05T03:38:32.840Z,508.00
2023-02-05T03:39:32.846Z,504.00
2023-02-05T03:40:32.838Z,505.00
2023-02-05T03:41:32.816Z,506.00
2023-02-05T03:42:32.803Z,508.00
2023-02-05T03:43:32.800Z,509.00
2023-02-05T03:44:32.794Z,504.00
2023-02-05T03:45:33.358Z,509.00
2023-02-05T03:46:32.773Z,504.00
2023-02-05T03:47:32.758Z,500.00
2023-02-05T03:48:32.745Z,511.00
2023-02-05T03:49:32.738Z,509.00
2023-02-05T03:50:32.747Z,507.00
2023-02-05T03:51:32.753Z,509.00
2023-02-05T03:52:32.716Z,512.00
2023-02-05T03:53:32.711Z,510.00
2023-02-05T03:54:32.697Z,505.00
2023-02-05T03:55:33.028Z,511.00
2023-02-05T03:56:32.680Z,509.00
2023-02-05T03:57:32.685Z,501.00
2023-02-05T03:58:32.686Z,510.00
2023-02-05T03:59:32.671Z,506.00
2023-02-05T04:00:32.670Z,507.00
2023-02-05T04:01:32.646Z,500.00
2023-02-05T04:02:32.742Z,504.00
2023-02-05T04:03:32.690Z,504.00
2023-02-05T04:04:32.635Z,506.00
2023-02-05T04:05:32.962Z,503.00
2023-02-05T04:06:32.587Z,502.00
2023-02-05T04:07:32.618Z,502.00
2023-02-05T04:08:32.582Z,505.00
2023-02-05T04:09:32.559Z,507.00
2023-02-05T04:10:32.549Z,509.00
2023-02-05T04:11:32.535Z,506.00
2023-02-05T04:12:32.531Z,504.00
2023-02-05T04:13:32.518Z,509.00
2023-02-05T04:14:32.512Z,507.00
2023-02-05T04:15:32.824Z,504.00
2023-02-05T04:16:32.681Z,502.00
2023-02-05T04:17:32.483Z,508.00
2023-02-05T04:18:32.481Z,512.00
2023-02-05T04:19:32.465Z,508.00
2023-02-05T04:20:32.473Z,506.00
2023-02-05T04:21:32.452Z,507.00
2023-02-05T04:22:32.440Z,507.00
2023-02-05T04:23:32.461Z,509.00
2023-02-05T04:24:32.443Z,514.00
2023-02-05T04:25:33.006Z,503.00
2023-02-05T04:26:32.415Z,501.00
2023-02-05T04:27:32.393Z,502.00
2023-02-05T04:28:32.395Z,508.00
2023-02-05T04:29:32.383Z,508.00
2023-02-05T04:30:32.469Z,506.00
2023-02-05T04:31:32.451Z,508.00
2023-02-05T04:32:32.350Z,505.00
2023-02-05T04:33:32.343Z,512.00
2023-02-05T04:34:32.344Z,507.00
2023-02-05T04:35:32.730Z,511.00
2023-02-05T04:36:32.324Z,503.00
2023-02-05T04:37:32.310Z,504.00
2023-02-05T04:38:32.311Z,509.00
2023-02-05T04:39:32.322Z,506.00
2023-02-05T04:40:32.285Z,505.00
2023-02-05T04:41:32.288Z,507.00
2023-02-05T04:42:32.266Z,509.00
2023-02-05T04:43:32.257Z,508.00
2023-02-05T04:44:32.267Z,507.00
2023-02-05T04:45:32.539Z,507.00
2023-02-05T04:46:32.266Z,507.00
2023-02-05T04:47:32.218Z,511.00
2023-02-05T04:48:32.212Z,509.00
2023-02-05T04:49:32.204Z,509.00
2023-02-05T04:50:32.195Z,507.00
2023-02-05T04:51:32.194Z,504.00
2023-02-05T04:52:32.182Z,508.00
2023-02-05T04:53:32.169Z,502.00
2023-02-05T04:54:32.162Z,510.00
2023-02-05T04:55:32.474Z,506.00
2023-02-05T04:56:32.159Z,506.00
2023-02-05T04:57:32.137Z,509.00
2023-02-05T04:58:32.125Z,512.00
2023-02-05T04:59:32.117Z,508.00
2023-02-05T05:00:32.111Z,506.00
2023-02-05T05:01:32.208Z,501.00
2023-02-05T05:02:32.192Z,512.00
2023-02-05T05:03:32.078Z,511.00
2023-02-05T05:04:32.076Z,503.00
2023-02-05T05:05:32.441Z,508.00
2023-02-05T05:06:32.064Z,507.00
2023-02-05T05:07:32.059Z,509.00
2023-02-05T05:08:32.036Z,509.00
2023-02-05T05:09:32.032Z,512.00
2023-02-05T05:10:32.027Z,506.00
2023-02-05T05:11:32.045Z,511.00
2023-02-05T05:12:32.004Z,512.00
2023-02-05T05:13:31.997Z,507.00
2023-02-05T05:14:31.985Z,502.00
2023-02-05T05:15:32.434Z,508.00
2023-02-05T05:16:31.963Z,504.00
2023-02-05T05:17:31.957Z,504.00
2023-02-05T05:18:31.952Z,506.00
2023-02-05T05:19:31.960Z,507.00
2023-02-05T05:20:31.930Z,506.00
2023-02-05T05:21:31.929Z,505.00
2023-02-05T05:22:31.928Z,504.00
2023-02-05T05:23:31.904Z,503.00
2023-02-05T05:24:31.898Z,509.00
2023-02-05T05:25:32.300Z,503.00
2023-02-05T05:26:31.878Z,506.00
2023-02-05T05:27:31.896Z,511.00
2023-02-05T05:28:31.859Z,509.00
2023-02-05T05:29:31.858Z,510.00
2023-02-05T05:30:31.845Z,504.00
2023-02-05T05:31:31.830Z,506.00
2023-02-05T05:32:31.828Z,504.00
2023-02-05T05:33:31.815Z,505.00
2023-02-05T05:34:31.815Z,500.00
2023-02-05T05:35:32.197Z,507.00
2023-02-05T05:36:31.882Z,507.00
2023-02-05T05:37:31.783Z,510.00
2023-02-05T05:38:31.776Z,506.00
2023-02-05T05:39:31.759Z,511.00
2023-02-05T05:40:31.756Z,512.00
2023-02-05T05:41:31.746Z,505.00
2023-02-05T05:42:31.763Z,513.00
2023-02-05T05:43:31.756Z,512.00
2023-02-05T05:44:31.720Z,507.00
2023-02-05T05:45:32.100Z,506.00
2023-02-05T05:46:31.705Z,509.00
2023-02-05T05:47:31.690Z,506.00
2023-02-05T05:48:31.682Z,503.00
2023-02-05T05:49:31.682Z,513.00
2023-02-05T05:50:31.667Z,506.00
2023-02-05T05:51:31.664Z,511.00
2023-02-05T05:52:32.774Z,503.00
2023-02-05T05:53:31.644Z,507.00
2023-02-05T05:54:31.627Z,508.00
2023-02-05T05:55:31.836Z,506.00
2023-02-05T05:56:31.608Z,510.00
2023-02-05T05:57:31.637Z,506.00
2023-02-05T05:58:31.591Z,506.00
2023-02-05T05:59:31.604Z,506.00
2023-02-05T06:00:31.569Z,507.00
2023-02-05T06:01:31.562Z,505.00
2023-02-05T06:02:31.590Z,508.00
2023-02-05T06:03:31.547Z,505.00
2023-02-05T06:04:31.616Z,505.00
2023-02-05T06:05:31.714Z,506.00
2023-02-05T06:06:31.524Z,510.00
2023-02-05T06:07:31.507Z,510.00
2023-02-05T06:08:31.504Z,503.00
2023-02-05T06:09:31.501Z,505.00
2023-02-05T06:10:31.481Z,505.00
2023-02-05T06:11:31.478Z,507.00
2023-02-05T06:12:31.468Z,504.00
2023-02-05T06:13:31.465Z,506.00
2023-02-05T06:14:31.455Z,500.00
2023-02-05T06:15:31.501Z,502.00
2023-02-05T06:16:31.429Z,505.00
2023-02-05T06:17:31.417Z,502.00
2023-02-05T06:18:31.426Z,510.00
2023-02-05T06:19:31.435Z,507.00
2023-02-05T06:20:31.396Z,510.00
2023-02-05T06:21:31.384Z,508.00
2023-02-05T06:22:31.375Z,509.00
2023-02-05T06:23:31.387Z,509.00
2023-02-05T06:24:31.359Z,510.00
2023-02-05T06:25:31.363Z,502.00
2023-02-05T06:26:31.350Z,507.00
2023-02-05T06:27:31.329Z,509.00
2023-02-05T06:28:31.327Z,509.00
2023-02-05T06:29:31.309Z,506.00
2023-02-05T06:30:31.309Z,507.00
2023-02-05T06:31:31.508Z,511.00
2023-02-05T06:32:31.285Z,507.00
2023-02-05T06:33:31.278Z,507.00
2023-02-05T06:34:31.278Z,510.00
2023-02-05T06:35:31.291Z,505.00
2023-02-05T06:36:31.264Z,502.00
2023-02-05T06:37:46.252Z,504.00
2023-02-05T06:38:31.235Z,504.00
2023-02-05T06:39:31.230Z,506.00
2023-02-05T06:40:31.215Z,507.00
2023-02-05T06:41:31.211Z,508.00
2023-02-05T06:42:31.198Z,511.00
2023-02-05T06:43:31.201Z,506.00
2023-02-05T06:44:31.179Z,511.00
2023-02-05T06:45:31.194Z,510.00
2023-02-05T06:46:31.278Z,512.00
2023-02-05T06:47:31.188Z,510.00
2023-02-05T06:48:31.144Z,500.00
2023-02-05T06:49:31.136Z,509.00
2023-02-05T06:50:31.134Z,508.00
2023-02-05T06:51:31.117Z,503.00
2023-02-05T06:52:31.112Z,507.00
2023-02-05T06:53:31.104Z,505.00
2023-02-05T06:54:31.090Z,501.00
2023-02-05T06:55:31.087Z,505.00
2023-02-05T06:56:31.086Z,505.00
2023-02-05T06:57:31.094Z,505.00
2023-02-05T06:58:31.057Z,508.00
2023-02-05T06:59:31.048Z,506.00
2023-02-05T07:00:32.506Z,508.00
2023-02-05T07:01:31.257Z,509.00
2023-02-05T07:02:31.252Z,509.00
2023-02-05T07:03:31.180Z,505.00
2023-02-05T07:04:31.131Z,508.00
2023-02-05T07:05:31.125Z,503.00
2023-02-05T07:06:31.113Z,509.00
2023-02-05T07:07:31.097Z,500.00
2023-02-05T07:08:31.105Z,510.00
2023-02-05T07:09:31.109Z,506.00
2023-02-05T07:10:31.131Z,506.00
2023-02-05T07:11:31.075Z,507.00
2023-02-05T07:12:31.062Z,510.00
2023-02-05T07:13:31.050Z,504.00
2023-02-05T07:14:31.073Z,502.00
2023-02-05T07:15:31.031Z,507.00
2023-02-05T07:16:31.022Z,512.00
2023-02-05T07:17:31.018Z,507.00
2023-02-05T07:18:31.008Z,507.00
2023-02-05T07:19:31.026Z,510.00
2023-02-05T07:20:31.137Z,503.00
2023-02-05T07:21:30.980Z,512.00
2023-02-05T07:22:30.972Z,506.00
2023-02-05T07:23:30.972Z,513.00
2023-02-05T07:24:30.954Z,508.00
2023-02-05T07:25:30.974Z,510.00
2023-02-05T07:26:30.938Z,507.00
2023-02-05T07:27:30.949Z,507.00
2023-02-05T07:28:30.919Z,506.00
2023-02-05T09:02:32.149Z,508.00
2023-02-05T09:03:30.064Z,508.00
2023-02-05T09:04:30.096Z,510.00
2023-02-05T09:05:30.046Z,510.00
2023-02-05T09:06:30.039Z,507.00
2023-02-05T09:07:30.033Z,509.00
2023-02-05T09:08:31.274Z,507.00
2023-02-05T09:09:30.016Z,514.00
2023-02-05T09:10:30.007Z,511.00
2023-02-05T09:11:29.995Z,515.00
2023-02-05T09:12:30.097Z,510.00
2023-02-05T09:13:29.986Z,511.00
2023-02-05T09:14:29.969Z,507.00
2023-02-05T09:15:29.965Z,509.00
2023-02-05T09:16:30.026Z,510.00
2023-02-05T09:17:29.942Z,505.00
2023-02-05T09:18:29.932Z,506.00
2023-02-05T09:19:29.927Z,508.00
2023-02-05T09:20:29.914Z,509.00
2023-02-05T09:21:29.913Z,508.00
2023-02-05T09:22:29.899Z,508.00
2023-02-05T09:23:29.896Z,505.00
2023-02-05T09:24:29.882Z,509.00
2023-02-05T09:25:29.872Z,509.00
2023-02-05T09:26:29.901Z,510.00
2023-02-05T09:27:29.859Z,507.00
2023-02-05T09:28:29.878Z,505.00
2023-02-05T09:30:29.879Z,507.00
2023-02-05T09:31:29.924Z,504.00
2023-02-05T09:32:29.815Z,512.00
2023-02-05T09:33:29.804Z,516.00
2023-02-05T09:34:29.794Z,510.00
2023-02-05T09:35:29.795Z,508.00
2023-02-05T09:36:29.780Z,509.00
2023-02-05T09:37:29.772Z,510.00
2023-02-05T09:38:29.761Z,512.00
2023-02-05T09:40:05.595Z,509.00
2023-02-05T09:40:29.854Z,510.00
2023-02-05T09:41:29.741Z,511.00
2023-02-05T09:42:29.757Z,512.00
2023-02-05T09:43:29.722Z,511.00
2023-02-05T09:44:29.738Z,514.00
2023-02-05T09:45:29.698Z,513.00
2023-02-05T09:46:29.767Z,519.00
2023-02-05T09:47:29.680Z,513.00
2023-02-05T09:48:29.673Z,505.00
2023-02-05T09:49:29.669Z,509.00
2023-02-05T09:50:29.655Z,510.00
2023-02-05T09:51:29.642Z,510.00
2023-02-05T09:52:29.637Z,515.00
2023-02-05T09:53:29.640Z,512.00
2023-02-05T09:54:29.637Z,512.00
2023-02-05T09:55:29.616Z,513.00
2023-02-05T09:56:29.623Z,512.00
2023-02-05T09:57:29.589Z,509.00
2023-02-05T09:58:29.579Z,514.00
2023-02-05T09:59:29.579Z,510.00
2023-02-05T10:00:29.588Z,511.00
2023-02-05T10:01:29.625Z,507.00
2023-02-05T10:02:29.552Z,513.00
2023-02-05T10:03:29.532Z,512.00
2023-02-05T10:04:29.543Z,511.00
2023-02-05T10:05:29.515Z,507.00
2023-02-05T10:06:29.507Z,510.00
2023-02-05T10:07:29.496Z,514.00
2023-02-05T10:08:29.489Z,513.00
2023-02-05T10:09:29.474Z,514.00
2023-02-05T10:10:29.470Z,511.00
2023-02-05T10:11:29.458Z,517.00
2023-02-05T10:12:29.449Z,510.00
2023-02-05T10:13:29.443Z,513.00
2023-02-05T10:14:29.431Z,516.00
2023-02-05T10:15:29.452Z,506.00
2023-02-05T10:16:29.444Z,513.00
2023-02-05T10:17:29.420Z,511.00
2023-02-05T10:18:29.394Z,512.00
2023-02-05T10:19:29.384Z,515.00
2023-02-05T10:20:29.379Z,517.00
2023-02-05T10:21:29.381Z,513.00
2023-02-05T10:22:29.368Z,513.00
2023-02-05T10:23:29.364Z,513.00
2023-02-05T10:24:29.343Z,507.00
2023-02-05T10:25:29.333Z,515.00
2023-02-05T10:26:29.325Z,510.00
2023-02-05T10:27:29.324Z,511.00
2023-02-05T10:28:29.319Z,509.00
2023-02-05T10:29:29.301Z,517.00
2023-02-05T10:30:29.328Z,514.00
2023-02-05T10:31:29.317Z,510.00
2023-02-05T10:32:29.304Z,513.00
2023-02-05T10:33:29.263Z,514.00
2023-02-05T10:34:29.256Z,511.00
2023-02-05T10:35:29.248Z,512.00
2023-02-05T10:36:29.247Z,507.00
2023-02-05T10:37:29.242Z,517.00
2023-02-05T10:38:29.233Z,510.00
2023-02-05T10:39:29.210Z,512.00
2023-02-05T10:40:29.206Z,510.00
2023-02-05T10:41:29.199Z,512.00
2023-02-05T10:42:29.188Z,514.00
2023-02-05T10:43:29.186Z,515.00
2023-02-05T10:44:29.184Z,519.00
2023-02-05T10:45:29.156Z,509.00
2023-02-05T10:46:29.296Z,513.00
2023-02-05T10:47:29.142Z,517.00
2023-02-05T10:48:29.231Z,514.00
2023-02-05T10:49:29.128Z,516.00
2023-02-05T10:50:29.118Z,512.00
2023-02-05T10:51:29.106Z,514.00
2023-02-05T10:52:29.099Z,516.00
2023-02-05T10:53:29.086Z,514.00
2023-02-05T10:54:29.084Z,512.00
2023-02-05T10:55:29.072Z,514.00
2023-02-05T10:56:29.062Z,519.00
2023-02-05T10:57:29.053Z,515.00
2023-02-05T10:58:29.044Z,518.00
2023-02-05T10:59:29.035Z,510.00
2023-02-05T11:00:29.107Z,513.00
2023-02-05T11:01:29.053Z,514.00
2023-02-05T11:02:29.040Z,513.00
2023-02-05T11:03:29.000Z,515.00
2023-02-05T11:04:29.017Z,514.00
2023-02-05T11:05:28.989Z,512.00
2023-02-05T11:06:28.975Z,514.00
2023-02-05T11:07:28.960Z,514.00
2023-02-05T11:08:28.958Z,510.00
2023-02-05T11:09:28.947Z,513.00
2023-02-05T11:10:28.935Z,516.00
2023-02-05T11:11:28.932Z,511.00
2023-02-05T11:12:28.920Z,507.00
2023-02-05T11:13:28.912Z,511.00
2023-02-05T11:14:28.936Z,514.00
2023-02-05T11:15:28.891Z,514.00
2023-02-05T11:16:28.886Z,511.00
2023-02-05T11:17:28.878Z,513.00
2023-02-05T11:18:28.869Z,511.00
2023-02-05T11:19:28.858Z,515.00
2023-02-05T11:20:28.874Z,513.00
2023-02-05T11:21:28.854Z,519.00
2023-02-05T11:22:28.832Z,511.00
2023-02-05T11:23:28.823Z,515.00
2023-02-05T11:24:28.814Z,515.00
2023-02-05T11:25:30.512Z,517.00
2023-02-05T11:26:28.824Z,518.00
2023-02-05T11:27:28.824Z,518.00
2023-02-05T11:28:28.800Z,519.00
2023-02-05T11:29:28.771Z,518.00
2023-02-05T11:30:58.428Z,519.00
2023-02-05T11:31:28.844Z,518.00
2023-02-05T11:32:28.789Z,520.00
2023-02-05T11:33:28.737Z,521.00
2023-02-05T11:34:28.727Z,518.00
2023-02-05T11:35:28.730Z,514.00
2023-02-05T11:36:28.732Z,518.00
2023-02-05T11:37:28.692Z,527.00
2023-02-05T11:38:28.695Z,522.00
2023-02-05T11:39:28.694Z,514.00
2023-02-05T11:40:28.685Z,519.00
2023-02-05T11:41:28.662Z,516.00
2023-02-05T11:42:28.650Z,516.00
2023-02-05T11:43:28.640Z,518.00
2023-02-05T11:44:30.285Z,522.00
2023-02-05T11:45:28.623Z,522.00
2023-02-05T11:46:28.657Z,523.00
2023-02-05T11:47:28.608Z,517.00
2023-02-05T11:48:28.597Z,520.00
2023-02-05T11:49:28.596Z,516.00
2023-02-05T11:50:28.578Z,516.00
2023-02-05T11:51:28.578Z,515.00
2023-02-05T11:52:28.588Z,514.00
2023-02-05T11:53:28.560Z,517.00
2023-02-05T11:54:28.552Z,511.00
2023-02-05T11:55:28.540Z,512.00
2023-02-05T11:56:28.558Z,521.00
2023-02-05T11:57:28.524Z,510.00
2023-02-05T11:58:36.654Z,514.00
2023-02-05T11:59:28.509Z,515.00
2023-02-05T12:00:28.498Z,517.00
2023-02-05T12:01:28.492Z,517.00
2023-02-05T12:02:28.610Z,520.00
2023-02-05T12:03:28.465Z,520.00
2023-02-05T12:04:28.459Z,523.00
2023-02-05T12:05:28.448Z,520.00
2023-02-05T12:06:28.449Z,516.00
2023-02-05T12:07:28.435Z,512.00
2023-02-05T12:08:28.451Z,521.00
2023-02-05T12:09:28.419Z,519.00
2023-02-05T12:10:28.404Z,513.00
2023-02-05T12:11:28.399Z,518.00
2023-02-05T12:12:28.390Z,517.00
2023-02-05T12:13:28.380Z,513.00
2023-02-05T12:14:28.374Z,509.00
2023-02-05T12:15:28.364Z,513.00
2023-02-05T12:16:28.416Z,514.00
2023-02-05T12:17:28.350Z,513.00
2023-02-05T12:18:28.354Z,519.00
2023-02-05T12:19:30.077Z,513.00
2023-02-05T12:20:28.315Z,514.00
2023-02-05T12:21:28.308Z,514.00
2023-02-05T12:22:28.308Z,517.00
2023-02-05T12:23:28.295Z,511.00
2023-02-05T12:24:28.305Z,519.00
2023-02-05T12:25:28.272Z,513.00
2023-02-05T12:26:28.266Z,517.00
2023-02-05T12:27:28.257Z,521.00
2023-02-05T12:28:28.252Z,519.00
2023-02-05T12:29:28.238Z,517.00
2023-02-05T12:30:28.262Z,515.00
2023-02-05T12:31:28.236Z,519.00
2023-02-05T12:32:28.211Z,515.00
2023-02-05T12:33:28.576Z,517.00
2023-02-05T12:34:28.202Z,513.00
2023-02-05T12:35:28.183Z,521.00
2023-02-05T12:36:28.177Z,519.00
2023-02-05T12:37:28.171Z,519.00
2023-02-05T12:38:32.332Z,515.00
2023-02-05T12:39:28.362Z,516.00
2023-02-05T12:40:28.367Z,517.00
2023-02-05T12:41:28.338Z,517.00
2023-02-05T12:42:28.326Z,515.00
2023-02-05T12:43:28.317Z,515.00
2023-02-05T12:44:28.316Z,519.00
2023-02-05T12:45:28.303Z,515.00
2023-02-05T12:46:28.291Z,520.00
2023-02-05T12:47:28.282Z,518.00
2023-02-05T12:48:28.282Z,519.00
2023-02-05T12:49:28.267Z,518.00
2023-02-05T12:50:28.264Z,517.00
2023-02-05T12:51:28.256Z,517.00
2023-02-05T12:52:28.242Z,517.00
2023-02-05T12:53:28.236Z,512.00
2023-02-05T12:54:28.218Z,522.00
2023-02-05T12:55:28.226Z,520.00
2023-02-05T12:56:28.227Z,516.00
2023-02-05T12:57:28.199Z,515.00
2023-02-05T12:58:28.190Z,515.00
2023-02-05T12:59:28.184Z,521.00
2023-02-05T13:00:28.171Z,519.00
2023-02-05T13:01:28.170Z,526.00
2023-02-05T13:02:28.148Z,518.00
2023-02-05T13:03:28.144Z,518.00
2023-02-05T13:05:28.129Z,520.00
2023-02-05T13:06:28.124Z,516.00
2023-02-05T13:07:28.112Z,515.00
2023-02-05T13:08:28.097Z,517.00
2023-02-05T13:09:28.086Z,513.00
2023-02-05T13:10:28.078Z,515.00
2023-02-05T13:11:28.120Z,515.00
2023-02-05T13:12:28.092Z,518.00
2023-02-05T13:13:28.061Z,513.00
2023-02-05T13:14:28.051Z,516.00
2023-02-05T13:15:28.041Z,514.00
2023-02-05T13:16:29.678Z,515.00
2023-02-05T13:17:28.026Z,518.00
2023-02-05T13:18:28.021Z,521.00
2023-02-05T13:19:28.000Z,517.00
2023-02-05T13:20:27.994Z,516.00
2023-02-05T13:21:27.986Z,514.00
2023-02-05T13:22:29.407Z,521.00
2023-02-05T13:23:27.966Z,519.00
2023-02-05T13:24:27.961Z,517.00
2023-02-05T13:25:37.793Z,513.00
2023-02-05T13:26:27.941Z,513.00
2023-02-05T13:27:27.928Z,515.00
2023-02-05T13:28:27.946Z,516.00
2023-02-05T13:29:27.915Z,519.00
2023-02-05T13:30:28.038Z,520.00
2023-02-05T13:31:28.062Z,516.00
2023-02-05T13:32:27.886Z,517.00
2023-02-05T13:33:27.882Z,519.00
2023-02-05T13:34:27.881Z,523.00
2023-02-05T13:35:27.860Z,513.00
2023-02-05T13:36:27.852Z,519.00
2023-02-05T13:37:27.843Z,519.00
2023-02-05T13:38:27.828Z,522.00
2023-02-05T13:39:34.376Z,517.00
2023-02-05T13:40:27.817Z,518.00
2023-02-05T13:41:27.804Z,520.00
2023-02-05T13:42:27.796Z,518.00
2023-02-05T13:43:27.790Z,519.00
2023-02-05T13:44:27.805Z,521.00
2023-02-05T13:45:27.773Z,518.00
2023-02-05T13:46:27.757Z,521.00
2023-02-05T13:47:27.754Z,521.00
2023-02-05T13:48:27.736Z,517.00
2023-02-05T13:49:27.734Z,517.00
2023-02-05T13:50:27.731Z,524.00
2023-02-05T13:51:27.721Z,521.00
2023-02-05T13:52:27.702Z,521.00
2023-02-05T13:53:27.698Z,516.00
2023-02-05T13:54:27.692Z,518.00
2023-02-05T13:55:27.675Z,517.00
2023-02-05T13:56:27.674Z,522.00
2023-02-05T13:57:27.663Z,515.00
2023-02-05T13:58:27.650Z,517.00
2023-02-05T13:59:27.643Z,518.00
2023-02-05T14:00:27.664Z,519.00
2023-02-05T14:01:27.771Z,522.00
2023-02-05T14:02:27.618Z,517.00
2023-02-05T14:03:27.628Z,519.00
2023-02-05T14:04:27.602Z,519.00
2023-02-05T14:05:27.591Z,517.00
2023-02-05T14:06:27.597Z,520.00
2023-02-05T14:07:27.591Z,521.00
2023-02-05T14:08:27.562Z,520.00
2023-02-05T14:09:27.557Z,514.00
2023-02-05T14:10:27.544Z,518.00
2023-02-05T14:11:27.548Z,517.00
2023-02-05T14:12:27.536Z,518.00
2023-02-05T14:13:27.522Z,518.00
2023-02-05T14:14:27.515Z,516.00
2023-02-05T14:15:27.564Z,516.00
2023-02-05T14:16:27.521Z,520.00
2023-02-05T14:17:27.499Z,519.00
2023-02-05T14:18:27.482Z,520.00
2023-02-05T14:19:27.473Z,522.00
2023-02-05T14:20:27.460Z,513.00
2023-02-05T14:21:27.453Z,521.00
2023-02-05T14:22:27.452Z,519.00
2023-02-05T14:23:27.432Z,517.00
2023-02-05T14:24:27.429Z,514.00
2023-02-05T14:25:27.429Z,524.00
2023-02-05T14:26:27.408Z,521.00
2023-02-05T14:27:27.405Z,521.00
2023-02-05T14:28:27.396Z,523.00
2023-02-05T14:29:27.390Z,527.00
2023-02-05T14:30:27.413Z,516.00
2023-02-05T14:31:27.442Z,519.00
2023-02-05T14:32:27.406Z,521.00
2023-02-05T14:33:27.348Z,516.00
2023-02-05T14:34:27.349Z,527.00
2023-02-05T14:35:27.327Z,524.00
2023-02-05T14:36:27.322Z,520.00
2023-02-05T14:37:27.332Z,522.00
2023-02-05T14:38:27.306Z,520.00
2023-02-05T14:39:27.294Z,523.00
2023-02-05T14:40:27.294Z,524.00
2023-02-05T14:41:27.279Z,518.00
2023-02-05T14:42:27.282Z,524.00
2023-02-05T14:43:27.270Z,519.00
2023-02-05T14:44:27.247Z,526.00
2023-02-05T14:45:27.245Z,521.00
2023-02-05T14:46:27.243Z,523.00
2023-02-05T14:47:27.244Z,518.00
2023-02-05T14:48:27.243Z,518.00
2023-02-05T14:49:27.202Z,523.00
2023-02-05T14:50:27.192Z,521.00
2023-02-05T14:51:27.192Z,522.00
2023-02-05T14:52:27.194Z,522.00
2023-02-05T14:53:27.162Z,521.00
2023-02-05T14:54:27.157Z,520.00